Huvudsida
METAR-TAF:

METAR-TAF

Flygplatser :

Vardø flygplats. Svartnes

Vardø, Norge

latitud: 70-21N, longitud: 031-03E, höjd: 12 m

Aktuellt väderrapport

Denna rapport gjordes för 6 timmar och 39 minuter sedan, klockan 21:20 UTC
Vind 12 kt från väst
Temperatur -3°C
Fuktighet 93%
Tryck 980 hPa
Sikt: 5000 m
lätta snöbyar

METAR: ENSS 182120Z 28012KT 5000 -SHSN VV014 M03/M04 Q0980 RMK WIND 500FT 27015KT RESHSN

Tid: 04:59 (03:59 UTC)


TAF: saknas

Aktuella väderrapporter och prognoser från 4000 flygplatser (METAR- och TAF-rapporter).

De tillgängliga stationerna syns som gula och röda prickar på kartan.

För musen över prickarna för att se namnen på stationerna.

Klicka sedan för att få väderrapporter och prognoser.

För att ändra kartan: Klicka på de gröna knapparna med ett svart kors på för att zooma in; den gröna knappen med ett streck på för att zooma ut; eller på de gröna pilarna för angränsande kartor.


METAR-TAF: